sensor_id;sensor_type;location;lat;lon;timestamp;temperature;humidity
11772;DHT22;12556;55.748;13.194;2023-02-18T00:02:12;6.00;99.90
11772;DHT22;12556;55.748;13.194;2023-02-18T00:04:39;6.00;99.90
11772;DHT22;12556;55.748;13.194;2023-02-18T00:07:06;6.00;99.90
11772;DHT22;12556;55.748;13.194;2023-02-18T00:09:33;6.00;99.90
11772;DHT22;12556;55.748;13.194;2023-02-18T00:12:00;6.00;99.90
11772;DHT22;12556;55.748;13.194;2023-02-18T00:14:27;6.00;99.90
11772;DHT22;12556;55.748;13.194;2023-02-18T00:16:53;6.00;99.90
11772;DHT22;12556;55.748;13.194;2023-02-18T00:19:22;6.00;99.90
11772;DHT22;12556;55.748;13.194;2023-02-18T00:21:49;5.90;99.90
11772;DHT22;12556;55.748;13.194;2023-02-18T00:24:16;5.90;99.90
11772;DHT22;12556;55.748;13.194;2023-02-18T00:26:43;5.90;99.90
11772;DHT22;12556;55.748;13.194;2023-02-18T00:29:10;5.90;99.90
11772;DHT22;12556;55.748;13.194;2023-02-18T00:31:38;5.80;99.90
11772;DHT22;12556;55.748;13.194;2023-02-18T00:34:06;5.80;99.90
11772;DHT22;12556;55.748;13.194;2023-02-18T00:36:34;5.80;99.90
11772;DHT22;12556;55.748;13.194;2023-02-18T00:39:08;5.80;99.90
11772;DHT22;12556;55.748;13.194;2023-02-18T00:41:36;5.80;99.90
11772;DHT22;12556;55.748;13.194;2023-02-18T00:44:03;5.80;99.90
11772;DHT22;12556;55.748;13.194;2023-02-18T00:46:31;5.80;99.90
11772;DHT22;12556;55.748;13.194;2023-02-18T00:48:58;5.80;99.90
11772;DHT22;12556;55.748;13.194;2023-02-18T00:51:25;5.80;99.90
11772;DHT22;12556;55.748;13.194;2023-02-18T00:53:54;5.70;99.90
11772;DHT22;12556;55.748;13.194;2023-02-18T00:56:20;5.80;99.90
11772;DHT22;12556;55.748;13.194;2023-02-18T00:58:47;5.70;99.90
11772;DHT22;12556;55.748;13.194;2023-02-18T01:01:15;5.70;99.90
11772;DHT22;12556;55.748;13.194;2023-02-18T01:03:42;5.70;99.90
11772;DHT22;12556;55.748;13.194;2023-02-18T01:06:09;5.70;99.90
11772;DHT22;12556;55.748;13.194;2023-02-18T01:08:37;5.70;99.90
11772;DHT22;12556;55.748;13.194;2023-02-18T01:11:07;5.70;99.90
11772;DHT22;12556;55.748;13.194;2023-02-18T01:13:35;5.70;99.90
11772;DHT22;12556;55.748;13.194;2023-02-18T01:16:02;5.70;99.90
11772;DHT22;12556;55.748;13.194;2023-02-18T01:18:29;5.70;99.90
11772;DHT22;12556;55.748;13.194;2023-02-18T01:20:57;5.70;99.90
11772;DHT22;12556;55.748;13.194;2023-02-18T01:23:24;5.70;99.90
11772;DHT22;12556;55.748;13.194;2023-02-18T01:25:51;5.70;99.90
11772;DHT22;12556;55.748;13.194;2023-02-18T01:28:19;5.70;99.90
11772;DHT22;12556;55.748;13.194;2023-02-18T01:30:49;5.70;99.90
11772;DHT22;12556;55.748;13.194;2023-02-18T01:33:16;5.60;99.90
11772;DHT22;12556;55.748;13.194;2023-02-18T01:35:43;5.60;99.90
11772;DHT22;12556;55.748;13.194;2023-02-18T01:38:10;5.60;99.90
11772;DHT22;12556;55.748;13.194;2023-02-18T01:40:45;5.60;99.90
11772;DHT22;12556;55.748;13.194;2023-02-18T01:43:13;5.60;99.90
11772;DHT22;12556;55.748;13.194;2023-02-18T01:45:49;5.60;99.90
11772;DHT22;12556;55.748;13.194;2023-02-18T01:48:19;5.60;99.90
11772;DHT22;12556;55.748;13.194;2023-02-18T01:50:48;5.50;99.90
11772;DHT22;12556;55.748;13.194;2023-02-18T01:53:20;5.50;99.90
11772;DHT22;12556;55.748;13.194;2023-02-18T01:55:48;5.50;99.90
11772;DHT22;12556;55.748;13.194;2023-02-18T01:58:16;5.50;99.90
11772;DHT22;12556;55.748;13.194;2023-02-18T02:00:45;5.50;99.90
11772;DHT22;12556;55.748;13.194;2023-02-18T02:03:12;5.50;99.90
11772;DHT22;12556;55.748;13.194;2023-02-18T02:05:39;5.40;99.90
11772;DHT22;12556;55.748;13.194;2023-02-18T02:08:06;5.00;99.90
11772;DHT22;12556;55.748;13.194;2023-02-18T02:10:41;5.40;99.90
11772;DHT22;12556;55.748;13.194;2023-02-18T02:13:15;5.40;99.90
11772;DHT22;12556;55.748;13.194;2023-02-18T02:15:49;5.40;99.90
11772;DHT22;12556;55.748;13.194;2023-02-18T02:18:38;5.60;99.90
11772;DHT22;12556;55.748;13.194;2023-02-18T02:24:39;5.30;99.90
11772;DHT22;12556;55.748;13.194;2023-02-18T02:27:18;5.30;99.90
11772;DHT22;12556;55.748;13.194;2023-02-18T02:36:12;5.20;99.90
11772;DHT22;12556;55.748;13.194;2023-02-18T02:38:47;5.20;99.90
11772;DHT22;12556;55.748;13.194;2023-02-18T02:41:23;5.20;99.90
11772;DHT22;12556;55.748;13.194;2023-02-18T02:44:01;5.20;99.90
11772;DHT22;12556;55.748;13.194;2023-02-18T02:46:37;5.20;99.90
11772;DHT22;12556;55.748;13.194;2023-02-18T02:49:15;5.20;99.90
11772;DHT22;12556;55.748;13.194;2023-02-18T02:51:51;5.20;99.90
11772;DHT22;12556;55.748;13.194;2023-02-18T02:54:21;5.20;99.90
11772;DHT22;12556;55.748;13.194;2023-02-18T02:56:48;5.20;99.90
11772;DHT22;12556;55.748;13.194;2023-02-18T02:59:17;5.20;99.90
11772;DHT22;12556;55.748;13.194;2023-02-18T03:01:58;5.20;99.90
11772;DHT22;12556;55.748;13.194;2023-02-18T03:04:40;5.20;99.90
11772;DHT22;12556;55.748;13.194;2023-02-18T03:07:37;5.20;99.90
11772;DHT22;12556;55.748;13.194;2023-02-18T03:10:30;5.10;99.90
11772;DHT22;12556;55.748;13.194;2023-02-18T03:13:08;5.10;99.90
11772;DHT22;12556;55.748;13.194;2023-02-18T03:15:42;5.10;99.90
11772;DHT22;12556;55.748;13.194;2023-02-18T03:18:16;5.10;99.90
11772;DHT22;12556;55.748;13.194;2023-02-18T03:20:50;5.10;99.90
11772;DHT22;12556;55.748;13.194;2023-02-18T03:23:24;5.10;99.90
11772;DHT22;12556;55.748;13.194;2023-02-18T03:25:53;5.10;99.90
11772;DHT22;12556;55.748;13.194;2023-02-18T03:28:23;5.10;99.90
11772;DHT22;12556;55.748;13.194;2023-02-18T03:30:54;5.00;99.90
11772;DHT22;12556;55.748;13.194;2023-02-18T03:33:25;5.00;99.90
11772;DHT22;12556;55.748;13.194;2023-02-18T03:35:53;5.00;99.90
11772;DHT22;12556;55.748;13.194;2023-02-18T03:38:27;5.00;99.90
11772;DHT22;12556;55.748;13.194;2023-02-18T03:40:55;5.00;99.90
11772;DHT22;12556;55.748;13.194;2023-02-18T03:43:22;5.00;99.90
11772;DHT22;12556;55.748;13.194;2023-02-18T03:45:49;5.00;99.90
11772;DHT22;12556;55.748;13.194;2023-02-18T03:48:17;5.00;99.90
11772;DHT22;12556;55.748;13.194;2023-02-18T03:50:43;4.90;99.90
11772;DHT22;12556;55.748;13.194;2023-02-18T03:53:10;5.00;99.90
11772;DHT22;12556;55.748;13.194;2023-02-18T03:55:39;4.90;99.90
11772;DHT22;12556;55.748;13.194;2023-02-18T03:58:07;4.90;99.90
11772;DHT22;12556;55.748;13.194;2023-02-18T04:00:34;4.90;99.90
11772;DHT22;12556;55.748;13.194;2023-02-18T04:03:01;4.90;99.90
11772;DHT22;12556;55.748;13.194;2023-02-18T04:05:28;4.90;99.90
11772;DHT22;12556;55.748;13.194;2023-02-18T04:07:55;4.90;99.90
11772;DHT22;12556;55.748;13.194;2023-02-18T04:10:21;4.90;99.90
11772;DHT22;12556;55.748;13.194;2023-02-18T04:12:50;4.90;99.90
11772;DHT22;12556;55.748;13.194;2023-02-18T04:15:17;4.90;99.90
11772;DHT22;12556;55.748;13.194;2023-02-18T04:17:43;4.90;99.90
11772;DHT22;12556;55.748;13.194;2023-02-18T04:20:11;4.90;99.90
11772;DHT22;12556;55.748;13.194;2023-02-18T04:22:38;4.90;99.90
11772;DHT22;12556;55.748;13.194;2023-02-18T04:25:06;4.80;99.90
11772;DHT22;12556;55.748;13.194;2023-02-18T04:27:33;4.90;99.90
11772;DHT22;12556;55.748;13.194;2023-02-18T04:30:01;4.90;99.90
11772;DHT22;12556;55.748;13.194;2023-02-18T04:32:28;4.80;99.90
11772;DHT22;12556;55.748;13.194;2023-02-18T04:34:55;4.80;99.90
11772;DHT22;12556;55.748;13.194;2023-02-18T04:37:22;4.80;99.90
11772;DHT22;12556;55.748;13.194;2023-02-18T04:39:49;4.80;99.90
11772;DHT22;12556;55.748;13.194;2023-02-18T04:42:16;4.80;99.90
11772;DHT22;12556;55.748;13.194;2023-02-18T04:44:43;4.80;99.90
11772;DHT22;12556;55.748;13.194;2023-02-18T04:47:11;4.80;99.90
11772;DHT22;12556;55.748;13.194;2023-02-18T04:49:38;4.80;99.90
11772;DHT22;12556;55.748;13.194;2023-02-18T04:52:05;4.80;99.90
11772;DHT22;12556;55.748;13.194;2023-02-18T04:54:32;4.80;99.90
11772;DHT22;12556;55.748;13.194;2023-02-18T04:56:59;4.80;99.90
11772;DHT22;12556;55.748;13.194;2023-02-18T04:59:26;4.80;99.90
11772;DHT22;12556;55.748;13.194;2023-02-18T05:01:52;4.80;99.90
11772;DHT22;12556;55.748;13.194;2023-02-18T05:04:21;4.80;99.90
11772;DHT22;12556;55.748;13.194;2023-02-18T05:06:48;4.80;99.90
11772;DHT22;12556;55.748;13.194;2023-02-18T05:09:14;4.80;99.90
11772;DHT22;12556;55.748;13.194;2023-02-18T05:11:42;4.80;99.90
11772;DHT22;12556;55.748;13.194;2023-02-18T05:14:09;4.70;99.90
11772;DHT22;12556;55.748;13.194;2023-02-18T05:16:36;4.70;99.90
11772;DHT22;12556;55.748;13.194;2023-02-18T05:19:03;4.70;99.90
11772;DHT22;12556;55.748;13.194;2023-02-18T05:21:31;4.70;99.90
11772;DHT22;12556;55.748;13.194;2023-02-18T05:23:59;4.70;99.90
11772;DHT22;12556;55.748;13.194;2023-02-18T05:26:25;4.70;99.90
11772;DHT22;12556;55.748;13.194;2023-02-18T05:28:52;4.60;99.90
11772;DHT22;12556;55.748;13.194;2023-02-18T05:31:19;4.70;99.90
11772;DHT22;12556;55.748;13.194;2023-02-18T05:33:46;4.70;99.90
11772;DHT22;12556;55.748;13.194;2023-02-18T05:36:13;4.70;99.90
11772;DHT22;12556;55.748;13.194;2023-02-18T05:38:41;4.70;99.90
11772;DHT22;12556;55.748;13.194;2023-02-18T05:41:08;4.60;99.90
11772;DHT22;12556;55.748;13.194;2023-02-18T05:43:35;4.60;99.90
11772;DHT22;12556;55.748;13.194;2023-02-18T05:46:26;4.60;99.90
11772;DHT22;12556;55.748;13.194;2023-02-18T05:48:53;4.60;99.90
11772;DHT22;12556;55.748;13.194;2023-02-18T05:51:20;4.50;99.90
11772;DHT22;12556;55.748;13.194;2023-02-18T05:53:48;4.50;99.90
11772;DHT22;12556;55.748;13.194;2023-02-18T05:56:15;4.50;99.90
11772;DHT22;12556;55.748;13.194;2023-02-18T05:58:42;4.50;99.90
11772;DHT22;12556;55.748;13.194;2023-02-18T06:01:09;4.50;99.90
11772;DHT22;12556;55.748;13.194;2023-02-18T06:03:36;4.50;99.90
11772;DHT22;12556;55.748;13.194;2023-02-18T06:06:03;4.60;99.90
11772;DHT22;12556;55.748;13.194;2023-02-18T06:08:30;4.60;99.90
11772;DHT22;12556;55.748;13.194;2023-02-18T06:10:59;4.60;99.90
11772;DHT22;12556;55.748;13.194;2023-02-18T06:13:26;4.60;99.90
11772;DHT22;12556;55.748;13.194;2023-02-18T06:15:52;4.60;99.90
11772;DHT22;12556;55.748;13.194;2023-02-18T06:18:19;4.50;99.90
11772;DHT22;12556;55.748;13.194;2023-02-18T06:20:47;4.60;99.90
11772;DHT22;12556;55.748;13.194;2023-02-18T06:23:14;4.60;99.90
11772;DHT22;12556;55.748;13.194;2023-02-18T06:25:41;4.60;99.90
11772;DHT22;12556;55.748;13.194;2023-02-18T06:28:10;4.50;99.90
11772;DHT22;12556;55.748;13.194;2023-02-18T06:30:36;4.60;99.90
11772;DHT22;12556;55.748;13.194;2023-02-18T06:33:03;4.60;99.90
11772;DHT22;12556;55.748;13.194;2023-02-18T06:35:31;4.60;99.90
11772;DHT22;12556;55.748;13.194;2023-02-18T06:37:57;4.60;99.90
11772;DHT22;12556;55.748;13.194;2023-02-18T06:40:24;4.60;99.90
11772;DHT22;12556;55.748;13.194;2023-02-18T06:42:52;4.60;99.90
11772;DHT22;12556;55.748;13.194;2023-02-18T06:45:20;4.60;99.90
11772;DHT22;12556;55.748;13.194;2023-02-18T06:47:47;4.60;99.90
11772;DHT22;12556;55.748;13.194;2023-02-18T06:50:14;4.60;99.90
11772;DHT22;12556;55.748;13.194;2023-02-18T06:52:41;4.60;99.90
11772;DHT22;12556;55.748;13.194;2023-02-18T06:55:09;4.60;99.90
11772;DHT22;12556;55.748;13.194;2023-02-18T06:57:36;4.60;99.90
11772;DHT22;12556;55.748;13.194;2023-02-18T07:00:07;4.60;99.90
11772;DHT22;12556;55.748;13.194;2023-02-18T07:02:36;4.60;99.90
11772;DHT22;12556;55.748;13.194;2023-02-18T07:05:03;4.60;99.90
11772;DHT22;12556;55.748;13.194;2023-02-18T07:07:30;4.60;99.90
11772;DHT22;12556;55.748;13.194;2023-02-18T07:09:57;4.60;99.90
11772;DHT22;12556;55.748;13.194;2023-02-18T07:12:24;4.50;99.90
11772;DHT22;12556;55.748;13.194;2023-02-18T07:14:51;4.60;99.90
11772;DHT22;12556;55.748;13.194;2023-02-18T07:17:18;4.60;99.90
11772;DHT22;12556;55.748;13.194;2023-02-18T07:19:46;4.60;99.90
11772;DHT22;12556;55.748;13.194;2023-02-18T07:22:13;4.60;99.90
11772;DHT22;12556;55.748;13.194;2023-02-18T07:24:40;4.60;99.90
11772;DHT22;12556;55.748;13.194;2023-02-18T07:27:07;4.60;99.90
11772;DHT22;12556;55.748;13.194;2023-02-18T07:29:34;4.70;99.90
11772;DHT22;12556;55.748;13.194;2023-02-18T07:32:01;4.60;99.90
11772;DHT22;12556;55.748;13.194;2023-02-18T07:34:28;4.70;99.90
11772;DHT22;12556;55.748;13.194;2023-02-18T07:36:56;4.60;99.90
11772;DHT22;12556;55.748;13.194;2023-02-18T07:39:23;4.70;99.90
11772;DHT22;12556;55.748;13.194;2023-02-18T07:41:50;4.70;99.90
11772;DHT22;12556;55.748;13.194;2023-02-18T07:44:16;4.70;99.90
11772;DHT22;12556;55.748;13.194;2023-02-18T07:46:43;4.80;99.90
11772;DHT22;12556;55.748;13.194;2023-02-18T07:49:10;4.80;99.90
11772;DHT22;12556;55.748;13.194;2023-02-18T07:51:37;4.90;99.90
11772;DHT22;12556;55.748;13.194;2023-02-18T07:54:06;5.00;99.90
11772;DHT22;12556;55.748;13.194;2023-02-18T07:56:33;5.00;99.90
11772;DHT22;12556;55.748;13.194;2023-02-18T07:59:00;5.00;99.90
11772;DHT22;12556;55.748;13.194;2023-02-18T08:01:26;5.10;99.90
11772;DHT22;12556;55.748;13.194;2023-02-18T08:03:53;5.10;99.90
11772;DHT22;12556;55.748;13.194;2023-02-18T08:06:25;5.20;99.90
11772;DHT22;12556;55.748;13.194;2023-02-18T08:08:53;5.30;99.90
11772;DHT22;12556;55.748;13.194;2023-02-18T08:11:22;5.30;99.90
11772;DHT22;12556;55.748;13.194;2023-02-18T08:13:49;5.40;99.90
11772;DHT22;12556;55.748;13.194;2023-02-18T08:16:16;5.40;99.90
11772;DHT22;12556;55.748;13.194;2023-02-18T08:18:43;5.50;99.90
11772;DHT22;12556;55.748;13.194;2023-02-18T08:21:12;5.50;99.90
11772;DHT22;12556;55.748;13.194;2023-02-18T08:23:39;5.60;99.90
11772;DHT22;12556;55.748;13.194;2023-02-18T08:26:06;5.60;99.90
11772;DHT22;12556;55.748;13.194;2023-02-18T08:28:35;5.70;99.90
11772;DHT22;12556;55.748;13.194;2023-02-18T08:31:02;5.70;99.90
11772;DHT22;12556;55.748;13.194;2023-02-18T08:33:29;5.80;99.90
11772;DHT22;12556;55.748;13.194;2023-02-18T08:35:56;5.90;99.90
11772;DHT22;12556;55.748;13.194;2023-02-18T08:38:24;6.00;99.90
11772;DHT22;12556;55.748;13.194;2023-02-18T08:40:58;6.00;99.90
11772;DHT22;12556;55.748;13.194;2023-02-18T08:43:26;6.10;99.90
11772;DHT22;12556;55.748;13.194;2023-02-18T08:45:56;6.20;99.90
11772;DHT22;12556;55.748;13.194;2023-02-18T08:48:23;6.20;99.90
11772;DHT22;12556;55.748;13.194;2023-02-18T08:50:50;6.30;99.90
11772;DHT22;12556;55.748;13.194;2023-02-18T08:53:17;6.30;99.90
11772;DHT22;12556;55.748;13.194;2023-02-18T08:55:44;6.40;99.90
11772;DHT22;12556;55.748;13.194;2023-02-18T08:58:12;6.50;99.90
11772;DHT22;12556;55.748;13.194;2023-02-18T09:00:40;6.50;99.90
11772;DHT22;12556;55.748;13.194;2023-02-18T09:03:11;6.50;99.90
11772;DHT22;12556;55.748;13.194;2023-02-18T09:05:38;6.50;99.90
11772;DHT22;12556;55.748;13.194;2023-02-18T09:08:05;6.50;99.90
11772;DHT22;12556;55.748;13.194;2023-02-18T09:10:32;6.50;99.90
11772;DHT22;12556;55.748;13.194;2023-02-18T09:13:00;6.50;99.90
11772;DHT22;12556;55.748;13.194;2023-02-18T09:15:26;6.50;99.90
11772;DHT22;12556;55.748;13.194;2023-02-18T09:17:53;6.50;99.90
11772;DHT22;12556;55.748;13.194;2023-02-18T09:20:22;6.50;99.90
11772;DHT22;12556;55.748;13.194;2023-02-18T09:22:48;6.60;99.90
11772;DHT22;12556;55.748;13.194;2023-02-18T09:25:15;6.70;99.90
11772;DHT22;12556;55.748;13.194;2023-02-18T09:27:42;6.70;99.90
11772;DHT22;12556;55.748;13.194;2023-02-18T09:30:10;6.70;99.90
11772;DHT22;12556;55.748;13.194;2023-02-18T09:32:37;6.80;99.90
11772;DHT22;12556;55.748;13.194;2023-02-18T09:35:04;6.80;99.90
11772;DHT22;12556;55.748;13.194;2023-02-18T09:37:32;6.80;99.90
11772;DHT22;12556;55.748;13.194;2023-02-18T09:39:59;6.80;99.90
11772;DHT22;12556;55.748;13.194;2023-02-18T09:42:29;6.70;99.90
11772;DHT22;12556;55.748;13.194;2023-02-18T09:44:59;6.70;99.90
11772;DHT22;12556;55.748;13.194;2023-02-18T09:47:32;6.70;99.90
11772;DHT22;12556;55.748;13.194;2023-02-18T09:50:07;6.70;99.90
11772;DHT22;12556;55.748;13.194;2023-02-18T09:52:36;6.40;99.90
11772;DHT22;12556;55.748;13.194;2023-02-18T09:55:16;6.70;99.90
11772;DHT22;12556;55.748;13.194;2023-02-18T09:57:46;6.70;99.90
11772;DHT22;12556;55.748;13.194;2023-02-18T10:00:18;6.70;99.90
11772;DHT22;12556;55.748;13.194;2023-02-18T10:02:52;6.70;99.90
11772;DHT22;12556;55.748;13.194;2023-02-18T10:05:21;6.60;99.90
11772;DHT22;12556;55.748;13.194;2023-02-18T10:07:53;6.60;99.90
11772;DHT22;12556;55.748;13.194;2023-02-18T10:10:30;6.60;99.90
11772;DHT22;12556;55.748;13.194;2023-02-18T10:12:58;6.60;99.90
11772;DHT22;12556;55.748;13.194;2023-02-18T10:15:27;6.60;99.90
11772;DHT22;12556;55.748;13.194;2023-02-18T10:17:55;6.60;99.90
11772;DHT22;12556;55.748;13.194;2023-02-18T10:20:25;6.60;99.90
11772;DHT22;12556;55.748;13.194;2023-02-18T10:22:57;6.60;99.90
11772;DHT22;12556;55.748;13.194;2023-02-18T10:25:26;6.70;99.90
11772;DHT22;12556;55.748;13.194;2023-02-18T10:27:54;6.70;99.90
11772;DHT22;12556;55.748;13.194;2023-02-18T10:30:23;6.70;99.90
11772;DHT22;12556;55.748;13.194;2023-02-18T10:32:55;6.70;99.90
11772;DHT22;12556;55.748;13.194;2023-02-18T10:35:30;6.70;99.90
11772;DHT22;12556;55.748;13.194;2023-02-18T10:38:07;6.60;99.90
11772;DHT22;12556;55.748;13.194;2023-02-18T10:40:46;6.60;99.90
11772;DHT22;12556;55.748;13.194;2023-02-18T10:43:24;6.70;99.90
11772;DHT22;12556;55.748;13.194;2023-02-18T10:45:57;6.60;99.90
11772;DHT22;12556;55.748;13.194;2023-02-18T10:48:48;6.60;99.90
11772;DHT22;12556;55.748;13.194;2023-02-18T10:51:21;6.60;99.90
11772;DHT22;12556;55.748;13.194;2023-02-18T10:53:51;6.70;99.90
11772;DHT22;12556;55.748;13.194;2023-02-18T10:56:37;6.70;99.90
11772;DHT22;12556;55.748;13.194;2023-02-18T10:59:12;6.80;99.90
11772;DHT22;12556;55.748;13.194;2023-02-18T11:01:40;6.80;99.90
11772;DHT22;12556;55.748;13.194;2023-02-18T11:04:13;6.80;99.90
11772;DHT22;12556;55.748;13.194;2023-02-18T11:06:42;6.90;99.90
11772;DHT22;12556;55.748;13.194;2023-02-18T11:09:29;6.90;99.90
11772;DHT22;12556;55.748;13.194;2023-02-18T11:12:05;6.90;99.90
11772;DHT22;12556;55.748;13.194;2023-02-18T11:14:39;7.00;99.90
11772;DHT22;12556;55.748;13.194;2023-02-18T11:17:17;7.00;99.90
11772;DHT22;12556;55.748;13.194;2023-02-18T11:19:52;7.10;99.90
11772;DHT22;12556;55.748;13.194;2023-02-18T11:22:21;7.20;99.90
11772;DHT22;12556;55.748;13.194;2023-02-18T11:24:53;7.40;99.90
11772;DHT22;12556;55.748;13.194;2023-02-18T11:27:27;7.50;99.90
11772;DHT22;12556;55.748;13.194;2023-02-18T11:29:59;7.60;99.90
11772;DHT22;12556;55.748;13.194;2023-02-18T11:32:28;7.80;99.90
11772;DHT22;12556;55.748;13.194;2023-02-18T11:34:56;8.00;99.90
11772;DHT22;12556;55.748;13.194;2023-02-18T11:37:23;8.20;99.90
11772;DHT22;12556;55.748;13.194;2023-02-18T11:39:53;8.40;99.90
11772;DHT22;12556;55.748;13.194;2023-02-18T11:42:23;8.50;99.90
11772;DHT22;12556;55.748;13.194;2023-02-18T11:44:52;8.60;99.90
11772;DHT22;12556;55.748;13.194;2023-02-18T11:47:25;8.70;99.90
11772;DHT22;12556;55.748;13.194;2023-02-18T11:50:02;8.90;99.90
11772;DHT22;12556;55.748;13.194;2023-02-18T11:52:34;9.00;99.90
11772;DHT22;12556;55.748;13.194;2023-02-18T11:55:06;9.00;99.90
11772;DHT22;12556;55.748;13.194;2023-02-18T11:57:35;8.90;99.90
11772;DHT22;12556;55.748;13.194;2023-02-18T12:00:09;8.90;99.90
11772;DHT22;12556;55.748;13.194;2023-02-18T12:02:41;9.10;99.90
11772;DHT22;12556;55.748;13.194;2023-02-18T12:05:11;8.90;99.90
11772;DHT22;12556;55.748;13.194;2023-02-18T12:07:43;8.90;99.90
11772;DHT22;12556;55.748;13.194;2023-02-18T12:10:14;8.80;99.90
11772;DHT22;12556;55.748;13.194;2023-02-18T12:12:46;8.60;99.90
11772;DHT22;12556;55.748;13.194;2023-02-18T12:15:17;8.50;99.90
11772;DHT22;12556;55.748;13.194;2023-02-18T12:17:54;8.50;99.90
11772;DHT22;12556;55.748;13.194;2023-02-18T12:20:43;8.50;99.90
11772;DHT22;12556;55.748;13.194;2023-02-18T12:23:18;8.50;99.90
11772;DHT22;12556;55.748;13.194;2023-02-18T12:25:55;8.40;99.90
11772;DHT22;12556;55.748;13.194;2023-02-18T12:28:35;8.30;99.90
11772;DHT22;12556;55.748;13.194;2023-02-18T12:31:24;8.20;99.90
11772;DHT22;12556;55.748;13.194;2023-02-18T12:34:04;8.20;99.90
11772;DHT22;12556;55.748;13.194;2023-02-18T12:36:44;8.20;99.90
11772;DHT22;12556;55.748;13.194;2023-02-18T12:39:23;8.10;99.90
11772;DHT22;12556;55.748;13.194;2023-02-18T12:42:02;8.10;99.90
11772;DHT22;12556;55.748;13.194;2023-02-18T12:44:38;8.00;99.90
11772;DHT22;12556;55.748;13.194;2023-02-18T12:47:28;8.00;99.90
11772;DHT22;12556;55.748;13.194;2023-02-18T12:50:27;7.90;99.90
11772;DHT22;12556;55.748;13.194;2023-02-18T12:53:20;7.80;99.90
11772;DHT22;12556;55.748;13.194;2023-02-18T12:56:02;7.70;99.90
11772;DHT22;12556;55.748;13.194;2023-02-18T12:58:47;7.70;99.90
11772;DHT22;12556;55.748;13.194;2023-02-18T13:01:27;7.80;99.90
11772;DHT22;12556;55.748;13.194;2023-02-18T13:07:25;7.90;99.90
11772;DHT22;12556;55.748;13.194;2023-02-18T13:10:15;7.90;99.90
11772;DHT22;12556;55.748;13.194;2023-02-18T13:12:49;7.90;99.90
11772;DHT22;12556;55.748;13.194;2023-02-18T13:15:24;7.80;99.90
11772;DHT22;12556;55.748;13.194;2023-02-18T13:17:57;7.70;99.90
11772;DHT22;12556;55.748;13.194;2023-02-18T13:20:33;7.60;99.90
11772;DHT22;12556;55.748;13.194;2023-02-18T13:23:03;7.50;99.90
11772;DHT22;12556;55.748;13.194;2023-02-18T13:25:34;7.50;99.90
11772;DHT22;12556;55.748;13.194;2023-02-18T13:28:06;7.40;99.90
11772;DHT22;12556;55.748;13.194;2023-02-18T13:30:43;7.40;99.90
11772;DHT22;12556;55.748;13.194;2023-02-18T13:33:18;7.30;99.90
11772;DHT22;12556;55.748;13.194;2023-02-18T13:35:53;7.30;99.90
11772;DHT22;12556;55.748;13.194;2023-02-18T13:41:18;7.30;99.90
11772;DHT22;12556;55.748;13.194;2023-02-18T13:43:46;7.20;99.90
11772;DHT22;12556;55.748;13.194;2023-02-18T13:46:15;7.10;99.90
11772;DHT22;12556;55.748;13.194;2023-02-18T13:48:46;7.10;99.90
11772;DHT22;12556;55.748;13.194;2023-02-18T13:51:15;7.10;99.90
11772;DHT22;12556;55.748;13.194;2023-02-18T13:53:50;7.10;99.90
11772;DHT22;12556;55.748;13.194;2023-02-18T13:56:21;7.10;99.90
11772;DHT22;12556;55.748;13.194;2023-02-18T13:58:50;7.10;99.90
11772;DHT22;12556;55.748;13.194;2023-02-18T14:01:32;7.10;99.90
11772;DHT22;12556;55.748;13.194;2023-02-18T14:04:01;7.10;99.90
11772;DHT22;12556;55.748;13.194;2023-02-18T14:06:30;7.10;99.90
11772;DHT22;12556;55.748;13.194;2023-02-18T14:09:35;7.10;99.90
11772;DHT22;12556;55.748;13.194;2023-02-18T14:12:22;7.00;99.90
11772;DHT22;12556;55.748;13.194;2023-02-18T14:14:50;7.00;99.90
11772;DHT22;12556;55.748;13.194;2023-02-18T14:17:34;7.00;99.90
11772;DHT22;12556;55.748;13.194;2023-02-18T14:23:41;6.80;99.90
11772;DHT22;12556;55.748;13.194;2023-02-18T14:26:16;6.80;99.90
11772;DHT22;12556;55.748;13.194;2023-02-18T14:28:52;6.80;99.90
11772;DHT22;12556;55.748;13.194;2023-02-18T14:31:35;6.70;99.90
11772;DHT22;12556;55.748;13.194;2023-02-18T14:37:21;6.60;99.90
11772;DHT22;12556;55.748;13.194;2023-02-18T14:39:59;6.50;99.90
11772;DHT22;12556;55.748;13.194;2023-02-18T14:42:36;6.40;99.90
11772;DHT22;12556;55.748;13.194;2023-02-18T14:45:21;6.30;99.90
11772;DHT22;12556;55.748;13.194;2023-02-18T14:50:50;6.10;99.90
11772;DHT22;12556;55.748;13.194;2023-02-18T14:53:19;6.00;99.90
11772;DHT22;12556;55.748;13.194;2023-02-18T14:55:49;6.00;99.90
11772;DHT22;12556;55.748;13.194;2023-02-18T14:58:25;5.90;99.90
11772;DHT22;12556;55.748;13.194;2023-02-18T15:00:53;5.90;99.90
11772;DHT22;12556;55.748;13.194;2023-02-18T15:03:21;5.90;99.90
11772;DHT22;12556;55.748;13.194;2023-02-18T15:05:50;5.80;99.90
11772;DHT22;12556;55.748;13.194;2023-02-18T15:08:18;5.80;99.90
11772;DHT22;12556;55.748;13.194;2023-02-18T15:10:49;5.80;99.90
11772;DHT22;12556;55.748;13.194;2023-02-18T15:13:19;5.70;99.90
11772;DHT22;12556;55.748;13.194;2023-02-18T15:15:50;5.70;99.90
11772;DHT22;12556;55.748;13.194;2023-02-18T15:18:24;5.60;99.90
11772;DHT22;12556;55.748;13.194;2023-02-18T15:20:54;5.60;99.90
11772;DHT22;12556;55.748;13.194;2023-02-18T15:23:21;5.60;99.90
11772;DHT22;12556;55.748;13.194;2023-02-18T15:25:51;5.60;99.90
11772;DHT22;12556;55.748;13.194;2023-02-18T15:28:25;5.50;99.90
11772;DHT22;12556;55.748;13.194;2023-02-18T15:30:52;5.50;99.90
11772;DHT22;12556;55.748;13.194;2023-02-18T15:33:20;5.50;99.90
11772;DHT22;12556;55.748;13.194;2023-02-18T15:35:47;5.50;99.90
11772;DHT22;12556;55.748;13.194;2023-02-18T15:38:18;5.50;99.90
11772;DHT22;12556;55.748;13.194;2023-02-18T15:43:16;5.40;99.90
11772;DHT22;12556;55.748;13.194;2023-02-18T15:45:46;5.40;99.90
11772;DHT22;12556;55.748;13.194;2023-02-18T15:48:23;5.40;99.90
11772;DHT22;12556;55.748;13.194;2023-02-18T15:50:54;5.30;99.90
11772;DHT22;12556;55.748;13.194;2023-02-18T15:53:24;5.30;99.90
11772;DHT22;12556;55.748;13.194;2023-02-18T15:55:52;5.20;99.90
11772;DHT22;12556;55.748;13.194;2023-02-18T15:58:23;5.20;99.90
11772;DHT22;12556;55.748;13.194;2023-02-18T16:00:53;5.20;99.90
11772;DHT22;12556;55.748;13.194;2023-02-18T16:03:22;5.10;99.90
11772;DHT22;12556;55.748;13.194;2023-02-18T16:05:49;5.10;99.90
11772;DHT22;12556;55.748;13.194;2023-02-18T16:08:24;5.10;99.90
11772;DHT22;12556;55.748;13.194;2023-02-18T16:10:54;5.00;99.90
11772;DHT22;12556;55.748;13.194;2023-02-18T16:13:22;5.00;99.90
11772;DHT22;12556;55.748;13.194;2023-02-18T16:15:51;5.00;99.90
11772;DHT22;12556;55.748;13.194;2023-02-18T16:18:25;4.90;99.90
11772;DHT22;12556;55.748;13.194;2023-02-18T16:20:55;4.90;99.90